Time;durP1;ratioP1;P1;durP2;ratioP2;P2;SDS_P1;SDS_P2;PMS_P1;PMS_P2;Temp;Humidity;BMP_temperature;BMP_pressure;BME280_temperature;BME280_humidity;BME280_pressure;Samples;Min_cycle;Max_cycle;Signal;HPM_P1;HPM_P2
2022/08/12 00:43:28;;;;;;;;;;;;;;;19.30;100.00;99599.05;1759197;81;20126;-79
2022/08/12 00:48:40;;;;;;;;;;;;;;;19.28;100.00;99602.21;1759081;81;20090;-79
2022/08/12 00:51:07;;;;;;;;;;;;;;;19.27;100.00;99601.19;1758824;81;20216;-84
2022/08/12 00:53:33;;;;;;;;;;;;;;;19.26;100.00;99604.56;1758912;81;20157;-84
2022/08/12 00:56:00;;;;;;;;;;;;;;;19.26;100.00;99600.97;1741236;81;20160;-83
2022/08/12 00:58:28;;;;;;;;;;;;;;;19.24;100.00;99602.73;1727774;83;21143;-82
2022/08/12 01:01:02;;;;;;;;;;;;;;;19.24;100.00;99607.50;1728883;83;20162;-81
2022/08/12 01:11:39;;;;;;;;;;;;;;;19.21;100.00;99609.05;1698434;83;21115;-79
2022/08/12 01:14:05;;;;;;;;;;;;;;;19.22;100.00;99608.45;1728582;83;20145;-79
2022/08/12 01:16:31;;;;;;;;;;;;;;;19.22;100.00;99609.84;1728720;83;20448;-79
2022/08/12 01:18:59;;;;;;;;;;;;;;;19.20;100.00;99606.05;1728773;83;20097;-79
2022/08/12 01:22:04;;;;;;;;;;;;;;;19.18;100.00;99608.40;1729069;83;20432;-80
2022/08/12 01:24:59;;;;;;;;;;;;;;;19.17;100.00;99613.75;1642118;87;21184;-80
2022/08/12 01:27:26;;;;;;;;;;;;;;;19.17;100.00;99615.72;1642284;87;20152;-79
2022/08/12 01:29:52;;;;;;;;;;;;;;;19.14;100.00;99612.52;1689328;83;20101;-81
2022/08/12 01:32:20;;;;;;;;;;;;;;;19.12;100.00;99606.52;1728576;83;20141;-81
2022/08/12 01:35:04;;;;;;;;;;;;;;;19.13;100.00;99609.52;1728670;83;36179;-79
2022/08/12 01:37:39;;;;;;;;;;;;;;;19.11;100.00;99606.30;1728719;82;21154;-81
2022/08/12 01:40:08;;;;;;;;;;;;;;;19.11;100.00;99604.10;1727787;83;20100;-79
2022/08/12 01:42:46;;;;;;;;;;;;;;;19.11;100.00;99603.52;1703321;83;20148;-79
2022/08/12 01:45:16;;;;;;;;;;;;;;;19.11;100.00;99604.10;1728174;83;20443;-79
2022/08/12 01:48:06;;;;;;;;;;;;;;;19.11;100.00;99602.71;1727882;83;20077;-78
2022/08/12 01:51:05;;;;;;;;;;;;;;;19.12;100.00;99607.91;1728957;83;21750;-79
2022/08/12 01:53:57;;;;;;;;;;;;;;;19.12;100.00;99607.09;1728254;83;20464;-80
2022/08/12 01:56:42;;;;;;;;;;;;;;;19.12;100.00;99609.30;1703718;83;20132;-78
2022/08/12 02:01:56;;;;;;;;;;;;;;;19.12;100.00;99602.92;1729029;82;20164;-79
2022/08/12 02:14:06;;;;;;;;;;;;;;;19.10;100.00;99606.08;1724116;83;20124;-79
2022/08/12 02:16:58;;;;;;;;;;;;;;;19.09;100.00;99607.84;1728676;83;20184;-79
2022/08/12 02:19:41;;;;;;;;;;;;;;;19.08;100.00;99609.02;1728823;83;22135;-79
2022/08/12 02:22:32;;;;;;;;;;;;;;;19.07;100.00;99611.58;1727672;83;20084;-79
2022/08/12 02:25:09;;;;;;;;;;;;;;;19.07;100.00;99603.23;1712898;83;20124;-79
2022/08/12 02:27:46;;;;;;;;;;;;;;;19.06;100.00;99594.70;1728911;83;20131;-80
2022/08/12 02:30:14;;;;;;;;;;;;;;;19.06;100.00;99592.69;1728054;83;20128;-81
2022/08/12 02:32:48;;;;;;;;;;;;;;;19.04;100.00;99595.08;1728882;83;21141;-80
2022/08/12 02:35:26;;;;;;;;;;;;;;;19.04;100.00;99594.27;1728791;83;20084;-80
2022/08/12 02:37:58;;;;;;;;;;;;;;;19.04;100.00;99599.25;1727365;83;20144;-79
2022/08/12 02:40:23;;;;;;;;;;;;;;;19.02;100.00;99592.45;1728582;83;20093;-81
2022/08/12 02:43:10;;;;;;;;;;;;;;;19.04;100.00;99594.27;1683444;83;20179;-80
2022/08/12 02:45:52;;;;;;;;;;;;;;;19.01;100.00;99593.03;1693798;84;21131;-80
2022/08/12 02:48:31;;;;;;;;;;;;;;;19.01;100.00;99597.20;1671721;85;20089;-80
2022/08/12 02:51:03;;;;;;;;;;;;;;;19.00;100.00;99588.64;1648512;86;20105;-80
2022/08/12 02:53:33;;;;;;;;;;;;;;;19.01;100.00;99596.41;1671552;86;20166;-80
2022/08/12 02:56:04;;;;;;;;;;;;;;;19.01;100.00;99595.01;1671224;86;20154;-81
2022/08/12 02:58:34;;;;;;;;;;;;;;;19.00;100.00;99590.63;1667611;86;21535;-80
2022/08/12 03:01:19;;;;;;;;;;;;;;;19.00;100.00;99587.84;1648576;86;20114;-81
2022/08/12 03:03:48;;;;;;;;;;;;;;;19.00;100.00;99592.81;1613827;89;20110;-81
2022/08/12 03:06:21;;;;;;;;;;;;;;;19.00;100.00;99593.41;1613441;89;20138;-81
2022/08/12 03:08:53;;;;;;;;;;;;;;;19.00;100.00;99597.58;1659538;86;20114;-79
2022/08/12 03:11:36;;;;;;;;;;;;;;;19.00;100.00;99594.80;1613427;89;21297;-78
2022/08/12 03:14:10;;;;;;;;;;;;;;;19.00;100.00;99592.02;1645762;86;20126;-79
2022/08/12 03:16:38;;;;;;;;;;;;;;;18.99;100.00;99596.77;1613046;89;20127;-78
2022/08/12 03:19:10;;;;;;;;;;;;;;;19.01;100.00;99593.62;1671764;86;20101;-80
2022/08/12 03:21:36;;;;;;;;;;;;;;;19.00;100.00;99587.25;1671043;86;20188;-80
2022/08/12 03:24:04;;;;;;;;;;;;;;;19.02;100.00;99596.62;1671801;86;21845;-80
2022/08/12 03:26:38;;;;;;;;;;;;;;;19.05;100.00;99598.66;1671840;86;20437;-78
2022/08/12 03:29:05;;;;;;;;;;;;;;;19.06;100.00;99603.05;1649571;86;20101;-82
2022/08/12 03:31:42;;;;;;;;;;;;;;;19.11;100.00;99607.69;1644305;86;20138;-83
2022/08/12 03:34:12;;;;;;;;;;;;;;;19.16;100.00;99600.20;1671686;86;20138;-78
2022/08/12 03:36:44;;;;;;;;;;;;;;;19.19;100.00;99602.25;1648224;86;20149;-77
2022/08/12 03:41:58;;;;;;;;;;;;;;;19.27;100.00;99597.02;1642276;86;20093;-77
2022/08/12 04:01:29;;;;;;;;;;;;;;;19.64;100.00;99600.80;1644475;86;20565;-82
2022/08/12 04:04:00;;;;;;;;;;;;;;;19.68;100.00;99611.40;1671353;85;20138;-81
2022/08/12 04:06:38;;;;;;;;;;;;;;;19.71;100.00;99622.38;1648168;86;20118;-79
2022/08/12 04:09:18;;;;;;;;;;;;;;;19.72;100.00;99622.00;1671266;85;20085;-78
2022/08/12 04:14:19;;;;;;;;;;;;;;;19.75;100.00;99628.22;1648890;84;20123;-80
2022/08/12 04:16:49;;;;;;;;;;;;;;;19.76;100.00;99631.80;1699275;84;21143;-81
2022/08/12 04:19:19;;;;;;;;;;;;;;;19.75;100.00;99641.34;1671766;84;20143;-81
2022/08/12 04:21:47;;;;;;;;;;;;;;;19.76;100.00;99660.46;1676454;84;20163;-80
2022/08/12 04:24:17;;;;;;;;;;;;;;;19.77;100.00;99676.58;1699954;84;20169;-80
2022/08/12 04:26:51;;;;;;;;;;;;;;;19.77;100.00;99680.17;1698820;84;20171;-78
2022/08/12 04:29:15;;;;;;;;;;;;;;;19.77;100.00;99676.58;1699532;84;21507;-76
2022/08/12 04:31:44;;;;;;;;;;;;;;;19.76;100.00;99686.92;1676361;84;20470;-79
2022/08/12 04:34:13;;;;;;;;;;;;;;;19.76;100.00;99685.53;1699938;84;20119;-90
2022/08/12 04:36:40;;;;;;;;;;;;;;;19.75;100.00;99678.34;1700286;84;20388;-91
2022/08/12 04:39:11;;;;;;;;;;;;;;;19.74;100.00;99672.56;1709925;82;20130;-81
2022/08/12 04:41:37;;;;;;;;;;;;;;;19.73;100.00;99668.17;1703466;83;20483;-77
2022/08/12 04:44:11;;;;;;;;;;;;;;;19.73;100.00;99660.41;1728869;82;20149;-77
2022/08/12 04:46:35;;;;;;;;;;;;;;;19.72;100.00;99658.20;1728455;82;20436;-79
2022/08/12 04:49:07;;;;;;;;;;;;;;;19.72;100.00;99651.25;1703573;83;20097;-79
2022/08/12 04:51:36;;;;;;;;;;;;;;;19.71;100.00;99639.89;1699480;83;20561;-81
2022/08/12 04:54:06;;;;;;;;;;;;;;;19.71;100.00;99646.86;1729112;82;21229;-82
2022/08/12 04:56:39;;;;;;;;;;;;;;;19.73;100.00;99639.52;1703621;83;20443;-79
2022/08/12 04:59:07;;;;;;;;;;;;;;;19.74;100.00;99623.02;1728557;83;20480;-87
2022/08/12 05:01:43;;;;;;;;;;;;;;;19.76;100.00;99607.55;1704170;82;20459;-89
2022/08/12 05:04:14;;;;;;;;;;;;;;;19.73;100.00;99592.97;1703647;83;20409;-80
2022/08/12 05:06:44;;;;;;;;;;;;;;;19.71;100.00;99600.09;1729122;83;21639;-80
2022/08/12 05:09:17;;;;;;;;;;;;;;;19.72;100.00;99596.94;1728307;82;20093;-86
2022/08/12 05:11:50;;;;;;;;;;;;;;;19.74;100.00;99595.97;1729058;82;20093;-94
2022/08/12 05:14:19;;;;;;;;;;;;;;;19.75;100.00;99586.44;1728888;82;20907;-80
2022/08/12 05:16:45;;;;;;;;;;;;;;;19.79;100.00;99571.97;1728764;83;20446;-86
2022/08/12 05:19:15;;;;;;;;;;;;;;;19.82;100.00;99568.22;1728484;83;22066;-87
2022/08/12 05:21:48;;;;;;;;;;;;;;;19.83;100.00;99565.06;1716070;82;20442;-83
2022/08/12 05:24:17;;;;;;;;;;;;;;;19.86;100.00;99580.22;1701626;83;20155;-83
2022/08/12 05:26:46;;;;;;;;;;;;;;;19.92;100.00;99588.46;1714842;83;20084;-77
2022/08/12 05:29:15;;;;;;;;;;;;;;;19.98;100.00;99619.80;1714760;82;20099;-78
2022/08/12 05:31:55;;;;;;;;;;;;;;;20.05;100.00;99639.98;1713427;82;21148;-79
2022/08/12 05:34:17;;;;;;;;;;;;;;;20.07;100.00;99657.94;1714303;83;20096;-79
2022/08/12 05:36:46;;;;;;;;;;;;;;;20.10;100.00;99648.02;1714971;83;20116;-82
2022/08/12 05:39:12;;;;;;;;;;;;;;;20.15;100.00;99647.70;1714509;83;20117;-86
2022/08/12 05:41:40;;;;;;;;;;;;;;;20.21;100.00;99648.17;1714846;83;20155;-82
2022/08/12 05:44:10;;;;;;;;;;;;;;;20.28;100.00;99659.39;1714454;83;21092;-83
2022/08/12 05:46:42;;;;;;;;;;;;;;;20.35;100.00;99658.09;1714546;82;20142;-84
2022/08/12 05:49:06;;;;;;;;;;;;;;;20.39;100.00;99646.42;1713478;83;20093;-76
2022/08/12 05:51:37;;;;;;;;;;;;;;;20.45;100.00;99642.13;1714685;83;20385;-77
2022/08/12 05:54:07;;;;;;;;;;;;;;;20.53;100.00;99641.62;1714636;83;20143;-76
2022/08/12 05:56:40;;;;;;;;;;;;;;;20.62;100.00;99643.52;1713894;83;21182;-76
2022/08/12 05:59:13;;;;;;;;;;;;;;;20.67;100.00;99665.50;1714660;83;20115;-82
2022/08/12 06:01:42;;;;;;;;;;;;;;;20.69;100.00;99686.84;1697899;83;20101;-82
2022/08/12 06:04:13;;;;;;;;;;;;;;;20.64;100.00;99689.37;1714678;83;20093;-81
2022/08/12 06:06:40;;;;;;;;;;;;;;;20.60;100.00;99677.37;1714776;83;20085;-83
2022/08/12 06:09:10;;;;;;;;;;;;;;;20.59;100.00;99663.21;1714949;83;21126;-82
2022/08/12 06:11:36;;;;;;;;;;;;;;;20.60;100.00;99653.66;1712738;83;20145;-81
2022/08/12 06:14:04;;;;;;;;;;;;;;;20.63;100.00;99640.35;1714899;83;20424;-82
2022/08/12 06:16:35;;;;;;;;;;;;;;;20.67;100.00;99630.04;1738293;82;20101;-82
2022/08/12 06:19:09;;;;;;;;;;;;;;;20.72;100.00;99628.89;1714758;83;20085;-81
2022/08/12 06:21:40;;;;;;;;;;;;;;;20.76;100.00;99617.19;1724684;82;21870;-80
2022/08/12 06:24:06;;;;;;;;;;;;;;;20.78;100.00;99599.47;1728322;82;20097;-81
2022/08/12 06:26:39;;;;;;;;;;;;;;;20.78;100.00;99588.31;1728574;83;20123;-78
2022/08/12 06:29:18;;;;;;;;;;;;;;;20.78;100.00;99574.95;1728423;83;20121;-75
2022/08/12 06:31:44;;;;;;;;;;;;;;;20.77;100.00;99569.97;1724055;83;20432;-78
2022/08/12 06:34:13;;;;;;;;;;;;;;;20.78;100.00;99556.82;1728571;83;21156;-77
2022/08/12 06:36:46;;;;;;;;;;;;;;;20.80;100.00;99543.30;1727389;83;20430;-77
2022/08/12 06:39:14;;;;;;;;;;;;;;;20.79;100.00;99532.73;1728287;82;20438;-78
2022/08/12 06:44:38;;;;;;;;;;;;;;;20.82;100.00;99526.34;1728590;83;20096;-78
2022/08/12 06:47:02;;;;;;;;;;;;;;;20.81;100.00;99526.73;1728019;83;21119;-79
2022/08/12 06:49:35;;;;;;;;;;;;;;;20.80;100.00;99529.34;1701688;83;20428;-81
2022/08/12 06:51:59;;;;;;;;;;;;;;;20.78;100.00;99536.70;1728210;83;20128;-78
2022/08/12 06:54:26;;;;;;;;;;;;;;;20.76;100.00;99548.25;1728497;83;20121;-75
2022/08/12 06:56:56;;;;;;;;;;;;;;;20.75;100.00;99553.62;1727553;83;20195;-77
2022/08/12 06:59:30;;;;;;;;;;;;;;;20.77;100.00;99565.78;1726898;83;21104;-77
2022/08/12 07:01:56;;;;;;;;;;;;;;;20.78;100.00;99578.55;1727881;83;20162;-78
2022/08/12 07:04:22;;;;;;;;;;;;;;;20.78;100.00;99584.72;1728500;83;20087;-77
2022/08/12 07:06:53;;;;;;;;;;;;;;;20.78;100.00;99588.31;1728623;83;20094;-77
2022/08/12 07:09:22;;;;;;;;;;;;;;;20.78;100.00;99596.69;1728872;83;20083;-81
2022/08/12 07:11:51;;;;;;;;;;;;;;;20.77;100.00;99597.87;1728191;82;21143;-82
2022/08/12 07:14:21;;;;;;;;;;;;;;;20.79;100.00;99598.88;1728478;83;20071;-81
2022/08/12 07:16:52;;;;;;;;;;;;;;;20.81;100.00;99608.44;1713212;83;20449;-81
2022/08/12 07:19:19;;;;;;;;;;;;;;;20.84;100.00;99604.88;1728650;82;20083;-80
2022/08/12 07:21:50;;;;;;;;;;;;;;;20.88;100.00;99607.13;1713040;83;20122;-79
2022/08/12 07:24:18;;;;;;;;;;;;;;;20.94;100.00;99612.56;1728461;83;21090;-80
2022/08/12 07:26:46;;;;;;;;;;;;;;;20.99;100.00;99616.40;1728199;82;20083;-79
2022/08/12 07:29:21;;;;;;;;;;;;;;;21.06;100.00;99615.08;1728534;82;20214;-77
2022/08/12 07:31:51;;;;;;;;;;;;;;;21.15;100.00;99614.75;1707142;83;20099;-78
2022/08/12 07:34:22;;;;;;;;;;;;;;;21.25;100.00;99608.50;1734987;82;20123;-77
2022/08/12 07:36:53;;;;;;;;;;;;;;;21.37;100.00;99608.80;1728037;82;21154;-77
2022/08/12 07:39:28;;;;;;;;;;;;;;;21.48;100.00;99607.45;1717076;83;20083;-75
2022/08/12 07:41:57;;;;;;;;;;;;;;;21.59;100.00;99609.73;1728368;82;20114;-75
2022/08/12 07:44:30;;;;;;;;;;;;;;;21.73;100.00;99608.44;1728059;82;20122;-76
2022/08/12 07:47:07;;;;;;;;;;;;;;;21.89;100.00;99609.55;1728667;83;20082;-76
2022/08/12 07:49:33;;;;;;;;;;;;;;;22.07;100.00;99604.86;1728694;83;21798;-76
2022/08/12 07:52:03;;;;;;;;;;;;;;;22.24;100.00;99601.94;1728590;83;20083;-76
2022/08/12 07:54:34;;;;;;;;;;;;;;;22.42;100.00;99599.22;1735038;82;20122;-76
2022/08/12 07:57:10;;;;;;;;;;;;;;;22.56;100.00;99595.05;1728663;83;20126;-77
2022/08/12 07:59:34;;;;;;;;;;;;;;;22.67;100.00;99589.69;1727465;82;20087;-75
2022/08/12 08:02:16;;;;;;;;;;;;;;;22.77;100.00;99585.31;1713509;83;20427;-75
2022/08/12 08:07:23;;;;;;;;;;;;;;;22.89;100.00;99573.77;1727485;82;20091;-77
2022/08/12 08:09:52;;;;;;;;;;;;;;;23.05;100.00;99576.99;1728652;83;20434;-74
2022/08/12 08:15:10;;;;;;;;;;;;;;;23.51;100.00;99571.95;1713325;83;20094;-74
2022/08/12 08:17:37;;;;;;;;;;;;;;;23.74;100.00;99569.32;1728588;82;20403;-75
2022/08/12 08:20:07;;;;;;;;;;;;;;;24.00;100.00;99566.84;1721716;82;20107;-74
2022/08/12 08:22:40;;;;;;;;;;;;;;;24.26;100.00;99562.75;1712036;83;20146;-75
2022/08/12 08:25:07;;;;;;;;;;;;;;;24.51;99.51;99566.04;1703858;83;20095;-75
2022/08/12 08:27:48;;;;;;;;;;;;;;;24.76;97.96;99561.69;1713666;83;20424;-73
2022/08/12 08:30:13;;;;;;;;;;;;;;;24.98;94.45;99561.13;1728099;82;20099;-75
2022/08/12 08:32:52;;;;;;;;;;;;;;;25.16;92.90;99563.80;1713223;83;20082;-76
2022/08/12 08:35:24;;;;;;;;;;;;;;;25.26;90.82;99565.72;1729158;82;20494;-76
2022/08/12 08:37:55;;;;;;;;;;;;;;;25.31;89.49;99571.50;1712968;83;20437;-76
2022/08/12 08:43:12;;;;;;;;;;;;;;;25.40;88.50;99571.83;1729152;82;20115;-80
2022/08/12 08:45:41;;;;;;;;;;;;;;;25.38;87.13;99572.85;1729160;82;20095;-73
2022/08/12 08:48:11;;;;;;;;;;;;;;;25.29;87.40;99578.14;1728508;82;20111;-79
2022/08/12 08:50:39;;;;;;;;;;;;;;;25.17;86.79;99566.80;1729290;82;20131;-75
2022/08/12 08:53:10;;;;;;;;;;;;;;;25.10;87.45;99559.04;1723945;82;21156;-75
2022/08/12 08:55:41;;;;;;;;;;;;;;;25.16;87.69;99549.76;1729099;83;20430;-74
2022/08/12 08:58:11;;;;;;;;;;;;;;;25.20;86.96;99542.09;1691739;83;20430;-77
2022/08/12 09:00:42;;;;;;;;;;;;;;;25.26;86.50;99545.27;1729100;83;20094;-73
2022/08/12 09:03:10;;;;;;;;;;;;;;;25.36;87.01;99539.36;1723816;82;20445;-74
2022/08/12 09:05:39;;;;;;;;;;;;;;;25.48;84.18;99550.05;1713395;83;20131;-75
2022/08/12 09:08:09;;;;;;;;;;;;;;;25.61;85.36;99556.75;1729099;83;20452;-73
2022/08/12 09:10:40;;;;;;;;;;;;;;;25.77;85.84;99556.22;1717627;83;20146;-74
2022/08/12 09:15:55;;;;;;;;;;;;;;;26.36;82.32;99546.08;1713447;83;20132;-73
2022/08/12 09:18:25;;;;;;;;;;;;;;;26.76;80.12;99547.89;1728845;82;21264;-77
2022/08/12 09:20:51;;;;;;;;;;;;;;;27.07;79.60;99547.85;1728688;82;20150;-74
2022/08/12 09:23:18;;;;;;;;;;;;;;;27.35;78.91;99569.09;1729124;83;20099;-74
2022/08/12 09:25:49;;;;;;;;;;;;;;;27.48;75.76;99572.28;1712579;82;20500;-74
2022/08/12 09:28:19;;;;;;;;;;;;;;;27.38;75.29;99574.67;1713812;83;20119;-75
2022/08/12 09:31:03;;;;;;;;;;;;;;;27.25;75.72;99577.91;1713906;83;21080;-72
2022/08/12 09:33:17;;;;;;;;;;;;;;;27.10;74.08;99572.36;1707057;83;20414;-73
2022/08/12 09:35:45;;;;;;;;;;;;;;;26.82;76.53;99584.81;1701780;83;20120;-73
2022/08/12 09:38:19;;;;;;;;;;;;;;;26.57;75.89;99602.09;1714613;83;20072;-74
2022/08/12 09:40:49;;;;;;;;;;;;;;;26.27;76.34;99605.04;1714805;82;20123;-73
2022/08/12 09:46:14;;;;;;;;;;;;;;;26.14;78.39;99608.20;1701548;83;20099;-75
2022/08/12 09:48:43;;;;;;;;;;;;;;;25.97;77.69;99607.83;1714373;83;20120;-74
2022/08/12 09:51:08;;;;;;;;;;;;;;;25.71;79.18;99603.66;1713613;83;20107;-75
2022/08/12 09:53:39;;;;;;;;;;;;;;;25.58;80.68;99607.56;1724979;83;20100;-74
2022/08/12 09:56:16;;;;;;;;;;;;;;;25.70;82.57;99609.70;1714666;83;22130;-73
2022/08/12 09:58:40;;;;;;;;;;;;;;;25.82;81.83;99606.38;1700939;83;20120;-73
2022/08/12 10:01:13;;;;;;;;;;;;;;;25.92;82.02;99620.33;1713762;83;20191;-73
2022/08/12 10:03:42;;;;;;;;;;;;;;;26.04;82.20;99620.98;1713363;83;20477;-73
2022/08/12 10:06:10;;;;;;;;;;;;;;;26.23;80.92;99620.37;1701142;83;20092;-73
2022/08/12 10:08:43;;;;;;;;;;;;;;;26.54;80.84;99621.23;1714602;83;21070;-75
2022/08/12 10:13:55;;;;;;;;;;;;;;;26.90;77.41;99617.30;1713597;83;20083;-73
2022/08/12 10:16:32;;;;;;;;;;;;;;;26.79;76.41;99619.46;1714621;83;20206;-73
2022/08/12 10:21:38;;;;;;;;;;;;;;;27.18;78.90;99610.44;1694672;83;21173;-72
2022/08/12 10:24:14;;;;;;;;;;;;;;;27.70;77.38;99605.78;1701500;83;20083;-75
2022/08/12 10:29:43;;;;;;;;;;;;;;;28.43;71.66;99599.09;1701485;83;20460;-72
2022/08/12 10:32:07;;;;;;;;;;;;;;;28.70;70.33;99615.25;1714154;83;20119;-75
2022/08/12 10:34:40;;;;;;;;;;;;;;;28.83;67.17;99612.58;1706026;83;21121;-73
2022/08/12 10:37:06;;;;;;;;;;;;;;;28.93;68.95;99612.92;1714345;83;20091;-75
2022/08/12 10:39:39;;;;;;;;;;;;;;;29.12;65.82;99609.86;1700968;83;20099;-74
2022/08/12 10:45:03;;;;;;;;;;;;;;;29.13;66.72;99614.28;1701508;83;20092;-73
2022/08/12 10:47:38;;;;;;;;;;;;;;;29.09;67.34;99607.91;1713094;82;21159;-76
2022/08/12 10:50:08;;;;;;;;;;;;;;;29.15;63.99;99616.05;1720726;83;20089;-74
2022/08/12 10:52:40;;;;;;;;;;;;;;;28.81;62.37;99607.33;1738047;82;20121;-71
2022/08/12 10:55:11;;;;;;;;;;;;;;;28.30;65.57;99622.17;1714629;83;20085;-71
2022/08/12 10:57:36;;;;;;;;;;;;;;;27.84;67.55;99622.41;1714868;82;20169;-73
2022/08/12 11:00:08;;;;;;;;;;;;;;;27.45;69.58;99619.66;1715117;83;20101;-83
2022/08/12 11:02:39;;;;;;;;;;;;;;;27.14;70.40;99613.34;1714681;82;20097;-75
2022/08/12 11:05:10;;;;;;;;;;;;;;;26.88;71.91;99620.53;1701907;83;20089;-81
2022/08/12 11:07:39;;;;;;;;;;;;;;;26.66;73.69;99622.05;1714357;83;20102;-83
2022/08/12 11:10:09;;;;;;;;;;;;;;;26.49;75.35;99621.70;1714827;83;20114;-77
2022/08/12 11:12:40;;;;;;;;;;;;;;;26.36;75.36;99613.61;1714862;83;21190;-75
2022/08/12 11:15:08;;;;;;;;;;;;;;;26.24;76.57;99611.51;1693253;83;20117;-75
2022/08/12 11:17:35;;;;;;;;;;;;;;;26.22;77.77;99614.55;1714726;83;20424;-75
2022/08/12 11:20:07;;;;;;;;;;;;;;;26.28;77.81;99604.43;1714782;83;20109;-74
2022/08/12 11:22:37;;;;;;;;;;;;;;;26.39;78.58;99613.57;1714768;83;20106;-76
2022/08/12 11:25:10;;;;;;;;;;;;;;;26.53;77.29;99611.19;1714663;82;21911;-84
2022/08/12 11:27:41;;;;;;;;;;;;;;;26.58;78.03;99607.27;1723707;82;20097;-82
2022/08/12 11:30:07;;;;;;;;;;;;;;;26.70;77.59;99601.67;1714327;83;20085;-77
2022/08/12 11:32:39;;;;;;;;;;;;;;;26.83;78.04;99596.27;1714447;83;20086;-76
2022/08/12 11:35:11;;;;;;;;;;;;;;;27.01;77.21;99587.59;1691888;83;20137;-79
2022/08/12 11:37:39;;;;;;;;;;;;;;;27.13;76.71;99582.16;1713728;83;21085;-80
2022/08/12 11:40:09;;;;;;;;;;;;;;;27.28;77.55;99588.33;1714806;83;20101;-77
2022/08/12 11:42:45;;;;;;;;;;;;;;;27.45;76.04;99590.06;1713951;83;20156;-77
2022/08/12 11:45:18;;;;;;;;;;;;;;;27.42;74.11;99586.69;1714016;83;20682;-75
2022/08/12 11:47:44;;;;;;;;;;;;;;;27.19;73.95;99590.90;1714760;83;20097;-78
2022/08/12 11:50:15;;;;;;;;;;;;;;;26.90;75.54;99594.76;1691988;83;20105;-85
2022/08/12 11:52:51;;;;;;;;;;;;;;;26.65;77.35;99597.92;1714016;83;20125;-84
2022/08/12 11:55:17;;;;;;;;;;;;;;;26.45;77.62;99606.26;1715071;83;20160;-83
2022/08/12 11:57:51;;;;;;;;;;;;;;;26.15;78.19;99598.55;1714261;83;20121;-76
2022/08/12 12:00:21;;;;;;;;;;;;;;;25.95;79.74;99594.78;1714582;83;20101;-80
2022/08/12 12:02:55;;;;;;;;;;;;;;;25.77;80.70;99602.00;1714835;83;21098;-76
2022/08/12 12:05:25;;;;;;;;;;;;;;;25.62;80.93;99599.91;1701703;83;20465;-77
2022/08/12 12:07:54;;;;;;;;;;;;;;;25.46;82.21;99608.08;1712641;83;20432;-81
2022/08/12 12:10:29;;;;;;;;;;;;;;;25.33;83.99;99610.62;1691857;83;20117;-78
2022/08/12 12:12:57;;;;;;;;;;;;;;;25.25;84.10;99602.66;1713803;83;20413;-79
2022/08/12 12:15:24;;;;;;;;;;;;;;;25.17;84.39;99601.12;1714710;83;21600;-78
2022/08/12 12:17:57;;;;;;;;;;;;;;;25.09;85.06;99600.98;1691828;83;20101;-81
2022/08/12 12:20:32;;;;;;;;;;;;;;;25.01;85.57;99602.42;1714378;83;20085;-76
2022/08/12 12:22:58;;;;;;;;;;;;;;;24.98;86.70;99601.05;1713682;83;20097;-80
2022/08/12 12:25:28;;;;;;;;;;;;;;;24.98;87.12;99607.46;1714441;83;20164;-78
2022/08/12 12:27:57;;;;;;;;;;;;;;;24.95;86.52;99602.64;1718374;83;21151;-81
2022/08/12 12:30:31;;;;;;;;;;;;;;;24.87;87.26;99600.28;1728501;82;20117;-76
2022/08/12 12:32:57;;;;;;;;;;;;;;;24.81;87.68;99597.75;1727779;82;20159;-76
2022/08/12 12:35:25;;;;;;;;;;;;;;;24.78;87.79;99598.56;1728407;82;20422;-76
2022/08/12 12:38:02;;;;;;;;;;;;;;;24.76;88.40;99610.81;1725473;83;20462;-77
2022/08/12 12:40:31;;;;;;;;;;;;;;;24.74;88.70;99605.61;1727043;82;20723;-76
2022/08/12 12:43:04;;;;;;;;;;;;;;;24.74;89.65;99602.80;1727930;82;20420;-76
2022/08/12 12:45:40;;;;;;;;;;;;;;;24.78;89.72;99597.96;1728678;83;20387;-76
2022/08/12 12:48:10;;;;;;;;;;;;;;;24.84;90.45;99593.48;1701796;83;20446;-77
2022/08/12 12:50:42;;;;;;;;;;;;;;;24.94;90.12;99589.02;1728582;83;20096;-77
2022/08/12 12:53:09;;;;;;;;;;;;;;;24.99;89.84;99582.38;1725568;83;21140;-77
2022/08/12 12:55:36;;;;;;;;;;;;;;;25.05;88.56;99580.54;1728488;83;20112;-76
2022/08/12 12:58:16;;;;;;;;;;;;;;;25.01;88.68;99586.19;1728563;83;20424;-76
2022/08/12 13:00:43;;;;;;;;;;;;;;;24.91;88.53;99588.42;1727905;83;20100;-76
2022/08/12 13:03:11;;;;;;;;;;;;;;;24.81;89.83;99599.95;1728590;83;20110;-76
2022/08/12 13:05:42;;;;;;;;;;;;;;;24.76;90.76;99603.80;1728297;82;21178;-79
2022/08/12 13:08:23;;;;;;;;;;;;;;;24.75;90.69;99606.41;1728118;82;20095;-77
2022/08/12 13:10:52;;;;;;;;;;;;;;;24.72;91.24;99604.41;1699611;84;20422;-77
2022/08/12 13:13:19;;;;;;;;;;;;;;;24.71;91.28;99604.22;1699658;84;20153;-77
2022/08/12 13:15:49;;;;;;;;;;;;;;;24.71;91.33;99599.41;1699801;84;20449;-77
2022/08/12 13:18:17;;;;;;;;;;;;;;;24.74;91.91;99602.80;1699496;84;21255;-77
2022/08/12 13:20:45;;;;;;;;;;;;;;;24.81;92.36;99605.56;1699563;84;20437;-77
2022/08/12 13:23:12;;;;;;;;;;;;;;;24.85;91.87;99604.11;1698690;84;20107;-76
2022/08/12 13:25:40;;;;;;;;;;;;;;;24.92;92.14;99599.25;1699468;84;20494;-76
2022/08/12 13:28:10;;;;;;;;;;;;;;;24.99;91.79;99603.44;1699829;84;20461;-77
2022/08/12 13:30:36;;;;;;;;;;;;;;;25.10;91.33;99599.16;1699874;84;21246;-77
2022/08/12 13:33:04;;;;;;;;;;;;;;;25.20;90.67;99590.46;1700208;84;20127;-77
2022/08/12 13:35:38;;;;;;;;;;;;;;;25.31;90.37;99594.78;1700001;84;20099;-77
2022/08/12 13:38:00;;;;;;;;;;;;;;;25.42;88.22;99595.30;1699079;84;20087;-77
2022/08/12 13:40:29;;;;;;;;;;;;;;;25.44;88.10;99592.23;1702099;82;20086;-76
2022/08/12 13:43:00;;;;;;;;;;;;;;;25.49;87.99;99600.22;1728902;83;21228;-76
2022/08/12 13:45:28;;;;;;;;;;;;;;;25.49;86.86;99601.62;1729065;83;20097;-76
2022/08/12 13:48:03;;;;;;;;;;;;;;;25.47;87.51;99592.81;1729343;83;20456;-76
2022/08/12 13:50:36;;;;;;;;;;;;;;;25.49;87.74;99593.20;1728979;82;20096;-76
2022/08/12 13:53:11;;;;;;;;;;;;;;;25.53;87.06;99594.57;1728732;83;20156;-77
2022/08/12 13:55:39;;;;;;;;;;;;;;;25.53;86.93;99588.34;1729123;82;23366;-76
2022/08/12 13:58:06;;;;;;;;;;;;;;;25.55;86.61;99591.53;1728976;83;20432;-77
2022/08/12 14:00:34;;;;;;;;;;;;;;;25.57;86.01;99591.92;1729050;83;20097;-76
2022/08/12 14:03:01;;;;;;;;;;;;;;;25.60;86.02;99589.68;1729009;83;20120;-76
2022/08/12 14:05:29;;;;;;;;;;;;;;;25.60;84.94;99588.88;1729066;83;20112;-77
2022/08/12 14:07:59;;;;;;;;;;;;;;;25.59;84.96;99585.27;1729058;82;21758;-78
2022/08/12 14:10:35;;;;;;;;;;;;;;;25.53;84.89;99579.91;1728863;82;20090;-77
2022/08/12 14:13:13;;;;;;;;;;;;;;;25.50;85.36;99579.34;1729431;82;20126;-76
2022/08/12 14:15:53;;;;;;;;;;;;;;;25.48;86.23;99585.98;1729121;82;20094;-77
2022/08/12 14:18:25;;;;;;;;;;;;;;;25.41;86.47;99590.89;1729002;82;20147;-77
2022/08/12 14:21:00;;;;;;;;;;;;;;;25.29;87.12;99587.98;1729118;82;21145;-76
2022/08/12 14:23:25;;;;;;;;;;;;;;;25.18;87.18;99583.05;1728798;83;20107;-76
2022/08/12 14:25:52;;;;;;;;;;;;;;;25.05;87.24;99588.36;1729005;83;20139;-77
2022/08/12 14:28:22;;;;;;;;;;;;;;;24.94;87.36;99584.80;1729119;82;20151;-76
2022/08/12 14:31:01;;;;;;;;;;;;;;;24.84;87.82;99582.89;1728546;83;20477;-77
2022/08/12 14:33:30;;;;;;;;;;;;;;;24.75;88.35;99589.56;1718417;83;21166;-80
2022/08/12 14:35:56;;;;;;;;;;;;;;;24.68;89.00;99590.41;1728632;83;20105;-76
2022/08/12 14:38:26;;;;;;;;;;;;;;;24.63;89.79;99593.64;1728435;83;20118;-78
2022/08/12 14:40:58;;;;;;;;;;;;;;;24.58;90.59;99587.84;1728403;83;20163;-80
2022/08/12 14:43:32;;;;;;;;;;;;;;;24.56;90.96;99586.05;1728893;83;20110;-77
2022/08/12 14:46:11;;;;;;;;;;;;;;;24.57;91.22;99581.23;1728688;83;21732;-76
2022/08/12 14:48:37;;;;;;;;;;;;;;;24.52;91.60;99575.45;1728736;82;20426;-80
2022/08/12 14:51:03;;;;;;;;;;;;;;;24.50;92.19;99565.23;1728462;83;20143;-76
2022/08/12 14:53:30;;;;;;;;;;;;;;;24.49;93.25;99562.84;1728707;83;20095;-78
2022/08/12 14:55:57;;;;;;;;;;;;;;;24.46;93.25;99555.24;1728306;82;20079;-79